LEIB Airport Information

Runway Information
Runway 06 Length 9186 ft width 148 ft
Elevation 13 ft Threshold ft Heading 62
Runway 24 Length 9186 ft Width 148 ft
Elevation 16 ft Threshold ft Heading 242
Airport Frequencies
Type APP Name PALMA APP Frequency 118.125 MHZ
Type APP Name APP Frequency 119.8 MHZ
Type ATIS Name ATIS Frequency 117.8 MHZ
Type GND Name GND Frequency 121.8 MHZ
Type TWR Name TWR Frequency 118.5 MHZ
Airport Navaids
Type VOR-DME Name Ibiza Frequency 117800 KHZ
Type NDB Name Ibiza Frequency 394 KHZ
Airport Weather Information & NOTAM
ADDS - METARS form results

(0121 UTC 08 August 2022)
Data provider http://aviationweather.gov/metar/data/
 
METAR text: LEIB 080100Z 00000KT CAVOK 24/21 Q1014 NOSIG
Conditions at: LEIB (IBIZA/ES CODOLA , ES) observed 0100 UTC 08 August 2022
Temperature: 24.0°C (75°F)
Dewpoint: 21.0°C (70°F) [RH = 83%]
Pressure (altimeter): 29.94 inches Hg (1014.0 mb)
Winds: calm
Visibility: 6 or more miles (10+ km)
Ceiling: ceiling and visibility are OK
Clouds: unknown
Weather: no significant weather observed at this time

METAR text: LEIB 080030Z 33003KT 300V360 CAVOK 25/21 Q1014 NOSIG
Conditions at: LEIB (IBIZA/ES CODOLA , ES) observed 0030 UTC 08 August 2022
Temperature: 25.0°C (77°F)
Dewpoint: 21.0°C (70°F) [RH = 79%]
Pressure (altimeter): 29.94 inches Hg (1014.0 mb)
Winds: from the NNW (330 degrees) at 3 MPH (3 knots; 1.5 m/s)
Visibility: 6 or more miles (10+ km)
Ceiling: ceiling and visibility are OK
Clouds: unknown
Weather: no significant weather observed at this time

Forecast for: LEIB (IBIZA/ES CODOLA , ES)
Text: TAF LEIB 072000Z 0721/0821 VRB03KT 9999 FEW015 TX33/0812Z TN23/0805Z
Forecast period: 2100 UTC 07 August 2022 to 0900 UTC 08 August 2022
Forecast type: FROM: standard forecast or significant change
Winds: variable direction winds at 3 MPH (3 knots; 1.5 m/s)
Visibility: 6 or more miles (10+ km)
Ceiling: at least 12,000 feet AGL
Clouds: few clouds at 1500 feet AGL
Weather: no significant weather forecast for this period
Text: BECMG 0809/0811 10010KT
Forecast period: 0900 to 2100 UTC 08 August 2022
Forecast type: BECOMING: Conditions expected to become as follows by 1100 UTC 08 August 2022
Winds: from the E (100 degrees) at 12 MPH (10 knots; 5.1 m/s)
Visibility: 6 or more miles (10+ km)
Ceiling: at least 12,000 feet AGL
Clouds: few clouds at 1500 feet AGL
Weather: no significant weather forecast for this period